Terminal Aerodrome Forecast
Issued by NWS Atlanta, GA

Home | Current Version | Previous Version | Text Only | Print | Product List | Glossary On
Versions: 1 2 3 4 5 6 7 8 9 10 11 12 13 14 15 16 17 18 19 20 21 22 23 24 25 26 27 28 29 30 31 32 33
000
FTUS42 KFFC 250344 AAB
TAFAHN
TAF AMD
KAHN 250344Z 2504/2524 36005KT P6SM VCSH SCT008 BKN015
      TEMPO 2504/2507 5SM BR BKN008
     FM250700 35006KT 4SM BR OVC005
     FM251400 31007KT P6SM SCT008 BKN012
     FM251600 31007KT P6SM FEW030=

USA.gov is the U.S. government's official web portal to all federal, state and local government web resources and services.